Terminal Aerodrome Forecast
Issued by NWS

Home | Current Version | Previous Version | Text Only | Print | Product List | Glossary Off
Versions: 1 2 3 4 5 6 7 8 9 10 11 12 13 14 15

000
FTUS43 KFGF 251700
TAFBJI
TAF
KBJI 251723Z 2518/2618 VRB03KT P6SM OVC025
     FM252300 08002KT P6SM OVC020
     FM261000 33008KT P6SM OVC015
     FM261700 33009KT P6SM BKN020=

USA.gov is the U.S. government's official web portal to all federal, state and local government web resources and services.